sensor_id;sensor_type;location;lat;lon;timestamp;pressure;altitude;pressure_sealevel;temperature;humidity
38880;BME280;25887;30.194;-97.880;2023-03-04T00:00:14;97653.63;;;23.71;30.63
38880;BME280;25887;30.194;-97.880;2023-03-04T00:02:40;97658.34;;;23.66;30.81
38880;BME280;25887;30.194;-97.880;2023-03-04T00:05:06;97659.38;;;23.63;30.75
38880;BME280;25887;30.194;-97.880;2023-03-04T00:07:32;97662.28;;;23.59;30.79
38880;BME280;25887;30.194;-97.880;2023-03-04T00:10:25;97671.25;;;23.55;30.84
38880;BME280;25887;30.194;-97.880;2023-03-04T00:12:51;97676.72;;;23.52;31.13
38880;BME280;25887;30.194;-97.880;2023-03-04T00:15:44;97671.75;;;23.47;31.12
38880;BME280;25887;30.194;-97.880;2023-03-04T00:18:10;97684.22;;;23.44;31.29
38880;BME280;25887;30.194;-97.880;2023-03-04T00:20:56;97681.97;;;23.38;31.39
38880;BME280;25887;30.194;-97.880;2023-03-04T00:23:54;97686.66;;;23.32;31.23
38880;BME280;25887;30.194;-97.880;2023-03-04T00:26:20;97686.03;;;23.29;31.14
38880;BME280;25887;30.194;-97.880;2023-03-04T00:28:47;97690.59;;;23.25;31.29
38880;BME280;25887;30.194;-97.880;2023-03-04T00:31:14;97694.38;;;23.21;31.27
38880;BME280;25887;30.194;-97.880;2023-03-04T00:33:40;97692.84;;;23.17;31.23
38880;BME280;25887;30.194;-97.880;2023-03-04T00:36:07;97699.34;;;23.12;31.64
38880;BME280;25887;30.194;-97.880;2023-03-04T00:38:53;97705.78;;;23.06;31.40
38880;BME280;25887;30.194;-97.880;2023-03-04T00:41:19;97707.84;;;23.01;31.34
38880;BME280;25887;30.194;-97.880;2023-03-04T00:43:52;97705.69;;;22.93;31.52
38880;BME280;25887;30.194;-97.880;2023-03-04T00:46:18;97712.13;;;22.88;31.51
38880;BME280;25887;30.194;-97.880;2023-03-04T00:49:02;97706.41;;;22.81;31.47
38880;BME280;25887;30.194;-97.880;2023-03-04T00:51:28;97718.28;;;22.72;31.89
38880;BME280;25887;30.194;-97.880;2023-03-04T00:53:54;97719.66;;;22.64;31.70
38880;BME280;25887;30.194;-97.880;2023-03-04T00:56:20;97727.06;;;22.57;32.01
38880;BME280;25887;30.194;-97.880;2023-03-04T00:58:51;97723.09;;;22.50;31.76
38880;BME280;25887;30.194;-97.880;2023-03-04T01:01:17;97720.09;;;22.42;31.96
38880;BME280;25887;30.194;-97.880;2023-03-04T01:03:43;97726.53;;;22.36;31.79
38880;BME280;25887;30.194;-97.880;2023-03-04T01:06:09;97731.25;;;22.30;31.92
38880;BME280;25887;30.194;-97.880;2023-03-04T01:08:37;97741.22;;;22.23;32.01
38880;BME280;25887;30.194;-97.880;2023-03-04T01:11:03;97735.50;;;22.16;32.31
38880;BME280;25887;30.194;-97.880;2023-03-04T01:13:29;97730.63;;;22.10;32.35
38880;BME280;25887;30.194;-97.880;2023-03-04T01:15:55;97727.56;;;22.02;32.16
38880;BME280;25887;30.194;-97.880;2023-03-04T01:18:24;97740.06;;;21.97;32.41
38880;BME280;25887;30.194;-97.880;2023-03-04T01:20:50;97738.81;;;21.88;32.28
38880;BME280;25887;30.194;-97.880;2023-03-04T01:23:16;97742.78;;;21.80;32.43
38880;BME280;25887;30.194;-97.880;2023-03-04T01:25:42;97746.81;;;21.69;32.39
38880;BME280;25887;30.194;-97.880;2023-03-04T01:28:07;97748.16;;;21.61;32.47
38880;BME280;25887;30.194;-97.880;2023-03-04T01:30:33;97752.03;;;21.54;32.47
38880;BME280;25887;30.194;-97.880;2023-03-04T01:32:59;97752.47;;;21.46;32.65
38880;BME280;25887;30.194;-97.880;2023-03-04T01:35:31;97757.09;;;21.41;32.58
38880;BME280;25887;30.194;-97.880;2023-03-04T01:37:57;97755.97;;;21.29;32.75
38880;BME280;25887;30.194;-97.880;2023-03-04T01:40:22;97766.03;;;21.20;32.86
38880;BME280;25887;30.194;-97.880;2023-03-04T01:42:48;97776.91;;;21.12;32.85
38880;BME280;25887;30.194;-97.880;2023-03-04T01:45:15;97780.84;;;21.03;33.05
38880;BME280;25887;30.194;-97.880;2023-03-04T01:47:43;97779.38;;;20.98;33.01
38880;BME280;25887;30.194;-97.880;2023-03-04T01:50:23;97780.59;;;20.91;33.33
38880;BME280;25887;30.194;-97.880;2023-03-04T01:53:14;97773.09;;;20.84;33.14
38880;BME280;25887;30.194;-97.880;2023-03-04T01:55:42;97783.78;;;20.80;33.24
38880;BME280;25887;30.194;-97.880;2023-03-04T01:58:09;97797.06;;;20.75;33.22
38880;BME280;25887;30.194;-97.880;2023-03-04T02:00:36;97787.75;;;20.70;33.45
38880;BME280;25887;30.194;-97.880;2023-03-04T02:03:09;97787.16;;;20.65;33.47
38880;BME280;25887;30.194;-97.880;2023-03-04T02:05:59;97796.88;;;20.61;33.50
38880;BME280;25887;30.194;-97.880;2023-03-04T02:08:24;97803.97;;;20.59;33.50
38880;BME280;25887;30.194;-97.880;2023-03-04T02:10:52;97803.41;;;20.52;33.67
38880;BME280;25887;30.194;-97.880;2023-03-04T02:13:18;97801.91;;;20.48;33.67
38880;BME280;25887;30.194;-97.880;2023-03-04T02:15:44;97812.47;;;20.45;33.67
38880;BME280;25887;30.194;-97.880;2023-03-04T02:18:15;97813.50;;;20.41;33.85
38880;BME280;25887;30.194;-97.880;2023-03-04T02:23:29;97824.31;;;20.34;33.92
38880;BME280;25887;30.194;-97.880;2023-03-04T02:28:32;97833.34;;;20.26;34.25
38880;BME280;25887;30.194;-97.880;2023-03-04T02:30:57;97835.31;;;20.21;34.13
38880;BME280;25887;30.194;-97.880;2023-03-04T02:33:50;97838.94;;;20.19;34.09
38880;BME280;25887;30.194;-97.880;2023-03-04T02:36:16;97846.03;;;20.15;34.13
38880;BME280;25887;30.194;-97.880;2023-03-04T02:38:43;97853.94;;;20.14;34.16
38880;BME280;25887;30.194;-97.880;2023-03-04T02:41:28;97854.94;;;20.11;34.25
38880;BME280;25887;30.194;-97.880;2023-03-04T02:44:15;97862.00;;;20.09;34.41
38880;BME280;25887;30.194;-97.880;2023-03-04T02:46:42;97862.97;;;20.07;34.43
38880;BME280;25887;30.194;-97.880;2023-03-04T02:49:08;97858.75;;;20.04;34.47
38880;BME280;25887;30.194;-97.880;2023-03-04T02:51:43;97866.72;;;20.01;34.45
38880;BME280;25887;30.194;-97.880;2023-03-04T02:54:27;97878.13;;;19.98;34.58
38880;BME280;25887;30.194;-97.880;2023-03-04T02:56:53;97882.56;;;19.96;34.46
38880;BME280;25887;30.194;-97.880;2023-03-04T02:59:20;97883.50;;;19.95;34.47
38880;BME280;25887;30.194;-97.880;2023-03-04T03:01:46;97886.25;;;19.92;34.49
38880;BME280;25887;30.194;-97.880;2023-03-04T03:04:12;97887.28;;;19.88;34.65
38880;BME280;25887;30.194;-97.880;2023-03-04T03:06:38;97891.81;;;19.85;34.67
38880;BME280;25887;30.194;-97.880;2023-03-04T03:09:05;97896.38;;;19.80;34.71
38880;BME280;25887;30.194;-97.880;2023-03-04T03:11:31;97897.38;;;19.77;34.71
38880;BME280;25887;30.194;-97.880;2023-03-04T03:13:57;97896.66;;;19.73;34.91
38880;BME280;25887;30.194;-97.880;2023-03-04T03:16:23;97891.66;;;19.69;34.86
38880;BME280;25887;30.194;-97.880;2023-03-04T03:18:49;97893.47;;;19.67;35.04
38880;BME280;25887;30.194;-97.880;2023-03-04T03:21:14;97898.81;;;19.64;34.88
38880;BME280;25887;30.194;-97.880;2023-03-04T03:23:43;97907.75;;;19.58;35.06
38880;BME280;25887;30.194;-97.880;2023-03-04T03:26:09;97907.84;;;19.55;35.07
38880;BME280;25887;30.194;-97.880;2023-03-04T03:28:39;97913.19;;;19.52;35.06
38880;BME280;25887;30.194;-97.880;2023-03-04T03:31:25;97920.38;;;19.47;35.21
38880;BME280;25887;30.194;-97.880;2023-03-04T03:33:51;97926.69;;;19.41;35.33
38880;BME280;25887;30.194;-97.880;2023-03-04T03:36:16;97926.03;;;19.36;35.38
38880;BME280;25887;30.194;-97.880;2023-03-04T03:38:42;97930.59;;;19.31;35.36
38880;BME280;25887;30.194;-97.880;2023-03-04T03:41:08;97929.16;;;19.24;35.42
38880;BME280;25887;30.194;-97.880;2023-03-04T03:43:34;97931.25;;;19.16;35.36
38880;BME280;25887;30.194;-97.880;2023-03-04T03:46:12;97932.50;;;19.06;35.52
38880;BME280;25887;30.194;-97.880;2023-03-04T03:48:38;97928.47;;;18.99;35.55
38880;BME280;25887;30.194;-97.880;2023-03-04T03:51:04;97926.25;;;18.89;35.52
38880;BME280;25887;30.194;-97.880;2023-03-04T03:53:30;97938.72;;;18.81;35.51
38880;BME280;25887;30.194;-97.880;2023-03-04T03:55:56;97939.94;;;18.73;35.77
38880;BME280;25887;30.194;-97.880;2023-03-04T03:58:23;97951.53;;;18.64;35.74
38880;BME280;25887;30.194;-97.880;2023-03-04T04:00:51;97949.31;;;18.55;36.01
38880;BME280;25887;30.194;-97.880;2023-03-04T04:03:17;97953.88;;;18.48;36.00
38880;BME280;25887;30.194;-97.880;2023-03-04T04:05:43;97948.06;;;18.42;35.93
38880;BME280;25887;30.194;-97.880;2023-03-04T04:08:11;97954.34;;;18.36;36.01
38880;BME280;25887;30.194;-97.880;2023-03-04T04:10:38;97958.13;;;18.29;36.06
38880;BME280;25887;30.194;-97.880;2023-03-04T04:16:06;97951.94;;;18.08;36.08
38880;BME280;25887;30.194;-97.880;2023-03-04T04:21:26;97959.56;;;17.89;36.40
38880;BME280;25887;30.194;-97.880;2023-03-04T04:23:51;97965.94;;;17.80;36.50
38880;BME280;25887;30.194;-97.880;2023-03-04T04:26:17;97966.25;;;17.71;36.66
38880;BME280;25887;30.194;-97.880;2023-03-04T04:28:43;97965.59;;;17.65;36.56
38880;BME280;25887;30.194;-97.880;2023-03-04T04:31:09;97963.19;;;17.60;36.76
38880;BME280;25887;30.194;-97.880;2023-03-04T04:33:35;97963.38;;;17.54;36.68
38880;BME280;25887;30.194;-97.880;2023-03-04T04:36:01;97957.59;;;17.46;36.61
38880;BME280;25887;30.194;-97.880;2023-03-04T04:38:29;97958.84;;;17.36;36.88
38880;BME280;25887;30.194;-97.880;2023-03-04T04:40:58;97955.66;;;17.27;36.79
38880;BME280;25887;30.194;-97.880;2023-03-04T04:43:24;97951.59;;;17.19;36.82
38880;BME280;25887;30.194;-97.880;2023-03-04T04:45:50;97955.25;;;17.13;36.96
38880;BME280;25887;30.194;-97.880;2023-03-04T04:48:16;97962.38;;;17.07;37.21
38880;BME280;25887;30.194;-97.880;2023-03-04T04:50:43;97949.56;;;17.02;37.27
38880;BME280;25887;30.194;-97.880;2023-03-04T04:53:10;97950.56;;;16.98;37.17
38880;BME280;25887;30.194;-97.880;2023-03-04T04:55:37;97950.69;;;16.93;37.43
38880;BME280;25887;30.194;-97.880;2023-03-04T04:58:04;97957.78;;;16.88;37.22
38880;BME280;25887;30.194;-97.880;2023-03-04T05:00:30;97950.16;;;16.84;37.40
38880;BME280;25887;30.194;-97.880;2023-03-04T05:02:55;97950.34;;;16.78;37.36
38880;BME280;25887;30.194;-97.880;2023-03-04T05:05:21;97959.22;;;16.70;37.42
38880;BME280;25887;30.194;-97.880;2023-03-04T05:07:47;97976.59;;;16.67;37.55
38880;BME280;25887;30.194;-97.880;2023-03-04T05:10:13;97980.16;;;16.63;37.53
38880;BME280;25887;30.194;-97.880;2023-03-04T05:12:38;97977.69;;;16.60;37.58
38880;BME280;25887;30.194;-97.880;2023-03-04T05:15:04;97974.31;;;16.56;37.86
38880;BME280;25887;30.194;-97.880;2023-03-04T05:17:38;97977.00;;;16.53;37.75
38880;BME280;25887;30.194;-97.880;2023-03-04T05:20:04;97975.41;;;16.49;37.98
38880;BME280;25887;30.194;-97.880;2023-03-04T05:22:31;97984.97;;;16.47;38.14
38880;BME280;25887;30.194;-97.880;2023-03-04T05:24:57;97985.06;;;16.44;38.22
38880;BME280;25887;30.194;-97.880;2023-03-04T05:27:23;97987.72;;;16.42;38.21
38880;BME280;25887;30.194;-97.880;2023-03-04T05:29:49;97986.94;;;16.39;38.21
38880;BME280;25887;30.194;-97.880;2023-03-04T05:32:14;97987.06;;;16.36;38.13
38880;BME280;25887;30.194;-97.880;2023-03-04T05:34:44;97978.53;;;16.31;38.15
38880;BME280;25887;30.194;-97.880;2023-03-04T05:37:10;97977.94;;;16.23;38.30
38880;BME280;25887;30.194;-97.880;2023-03-04T05:39:35;97976.50;;;16.12;38.28
38880;BME280;25887;30.194;-97.880;2023-03-04T05:42:01;97979.31;;;16.05;38.38
38880;BME280;25887;30.194;-97.880;2023-03-04T05:44:27;97976.09;;;15.95;38.26
38880;BME280;25887;30.194;-97.880;2023-03-04T05:46:53;97976.34;;;15.87;38.47
38880;BME280;25887;30.194;-97.880;2023-03-04T05:49:19;97970.47;;;15.81;38.32
38880;BME280;25887;30.194;-97.880;2023-03-04T05:51:45;97974.09;;;15.75;38.43
38880;BME280;25887;30.194;-97.880;2023-03-04T05:54:10;97969.97;;;15.68;38.54
38880;BME280;25887;30.194;-97.880;2023-03-04T05:56:36;97977.00;;;15.63;38.74
38880;BME280;25887;30.194;-97.880;2023-03-04T05:59:18;97979.69;;;15.58;38.75
38880;BME280;25887;30.194;-97.880;2023-03-04T06:01:45;97989.25;;;15.55;38.97
38880;BME280;25887;30.194;-97.880;2023-03-04T06:04:11;97991.88;;;15.53;38.87
38880;BME280;25887;30.194;-97.880;2023-03-04T06:09:44;97986.88;;;15.47;38.97
38880;BME280;25887;30.194;-97.880;2023-03-04T06:12:10;97980.94;;;15.44;39.21
38880;BME280;25887;30.194;-97.880;2023-03-04T06:14:56;97982.72;;;15.40;39.06
38880;BME280;25887;30.194;-97.880;2023-03-04T06:17:41;97982.91;;;15.34;39.20
38880;BME280;25887;30.194;-97.880;2023-03-04T06:20:07;97991.72;;;15.27;39.29
38880;BME280;25887;30.194;-97.880;2023-03-04T06:22:33;97991.81;;;15.22;39.20
38880;BME280;25887;30.194;-97.880;2023-03-04T06:25:00;97991.97;;;15.16;39.26
38880;BME280;25887;30.194;-97.880;2023-03-04T06:27:26;97988.69;;;15.10;39.28
38880;BME280;25887;30.194;-97.880;2023-03-04T06:29:56;97981.13;;;15.02;39.48
38880;BME280;25887;30.194;-97.880;2023-03-04T06:32:22;97978.66;;;14.97;39.35
38880;BME280;25887;30.194;-97.880;2023-03-04T06:34:48;97984.75;;;14.93;39.43
38880;BME280;25887;30.194;-97.880;2023-03-04T06:37:14;97986.63;;;14.88;39.57
38880;BME280;25887;30.194;-97.880;2023-03-04T06:39:40;97992.78;;;14.83;39.70
38880;BME280;25887;30.194;-97.880;2023-03-04T06:42:06;97993.72;;;14.80;39.52
38880;BME280;25887;30.194;-97.880;2023-03-04T06:44:31;98010.13;;;14.79;39.67
38880;BME280;25887;30.194;-97.880;2023-03-04T06:46:57;98026.50;;;14.78;39.76
38880;BME280;25887;30.194;-97.880;2023-03-04T06:49:23;98035.09;;;14.80;40.11
38880;BME280;25887;30.194;-97.880;2023-03-04T06:51:49;98034.25;;;14.80;39.99
38880;BME280;25887;30.194;-97.880;2023-03-04T06:54:15;98025.63;;;14.79;39.80
38880;BME280;25887;30.194;-97.880;2023-03-04T06:56:40;98027.34;;;14.80;39.79
38880;BME280;25887;30.194;-97.880;2023-03-04T06:59:06;98024.78;;;14.79;40.09
38880;BME280;25887;30.194;-97.880;2023-03-04T07:01:32;98035.13;;;14.79;40.23
38880;BME280;25887;30.194;-97.880;2023-03-04T07:03:59;98051.50;;;14.77;40.36
38880;BME280;25887;30.194;-97.880;2023-03-04T07:06:26;98042.00;;;14.78;40.06
38880;BME280;25887;30.194;-97.880;2023-03-04T07:08:52;98039.47;;;14.76;40.09
38880;BME280;25887;30.194;-97.880;2023-03-04T07:11:18;98050.66;;;14.79;40.33
38880;BME280;25887;30.194;-97.880;2023-03-04T07:13:44;98061.00;;;14.79;40.39
38880;BME280;25887;30.194;-97.880;2023-03-04T07:16:18;98060.09;;;14.80;40.27
38880;BME280;25887;30.194;-97.880;2023-03-04T07:18:58;98062.66;;;14.81;40.32
38880;BME280;25887;30.194;-97.880;2023-03-04T07:21:24;98066.13;;;14.80;40.35
38880;BME280;25887;30.194;-97.880;2023-03-04T07:23:50;98073.03;;;14.80;40.63
38880;BME280;25887;30.194;-97.880;2023-03-04T07:26:16;98064.44;;;14.79;40.66
38880;BME280;25887;30.194;-97.880;2023-03-04T07:28:42;98056.66;;;14.79;40.68
38880;BME280;25887;30.194;-97.880;2023-03-04T07:31:12;98060.16;;;14.76;40.60
38880;BME280;25887;30.194;-97.880;2023-03-04T07:33:38;98060.28;;;14.72;40.44
38880;BME280;25887;30.194;-97.880;2023-03-04T07:36:03;98069.78;;;14.70;40.32
38880;BME280;25887;30.194;-97.880;2023-03-04T07:38:29;98067.31;;;14.65;40.55
38880;BME280;25887;30.194;-97.880;2023-03-04T07:40:57;98063.06;;;14.61;40.38
38880;BME280;25887;30.194;-97.880;2023-03-04T07:43:23;98061.53;;;14.53;40.46
38880;BME280;25887;30.194;-97.880;2023-03-04T07:45:49;98063.38;;;14.47;40.47
38880;BME280;25887;30.194;-97.880;2023-03-04T07:48:35;98056.59;;;14.40;40.51
38880;BME280;25887;30.194;-97.880;2023-03-04T07:51:05;98072.22;;;14.34;40.61
38880;BME280;25887;30.194;-97.880;2023-03-04T07:53:32;98069.75;;;14.28;40.65
38880;BME280;25887;30.194;-97.880;2023-03-04T07:56:20;98077.69;;;14.19;40.57
38880;BME280;25887;30.194;-97.880;2023-03-04T07:58:46;98067.47;;;14.13;40.82
38880;BME280;25887;30.194;-97.880;2023-03-04T08:01:16;98072.75;;;14.07;40.73
38880;BME280;25887;30.194;-97.880;2023-03-04T08:03:42;98066.84;;;14.02;41.05
38880;BME280;25887;30.194;-97.880;2023-03-04T08:06:27;98073.81;;;13.97;40.82
38880;BME280;25887;30.194;-97.880;2023-03-04T08:08:59;98069.53;;;13.96;41.15
38880;BME280;25887;30.194;-97.880;2023-03-04T08:11:26;98073.84;;;13.95;41.17
38880;BME280;25887;30.194;-97.880;2023-03-04T08:13:53;98073.88;;;13.92;41.21
38880;BME280;25887;30.194;-97.880;2023-03-04T08:16:20;98071.34;;;13.90;41.32
38880;BME280;25887;30.194;-97.880;2023-03-04T08:19:04;98077.41;;;13.88;41.28
38880;BME280;25887;30.194;-97.880;2023-03-04T08:21:30;98076.59;;;13.86;41.48
38880;BME280;25887;30.194;-97.880;2023-03-04T08:23:57;98079.22;;;13.83;41.37
38880;BME280;25887;30.194;-97.880;2023-03-04T08:26:31;98073.28;;;13.79;41.46
38880;BME280;25887;30.194;-97.880;2023-03-04T08:29:18;98081.13;;;13.73;41.03
38880;BME280;25887;30.194;-97.880;2023-03-04T08:31:45;98079.44;;;13.69;41.49
38880;BME280;25887;30.194;-97.880;2023-03-04T08:34:11;98094.19;;;13.64;41.21
38880;BME280;25887;30.194;-97.880;2023-03-04T08:36:39;98095.13;;;13.58;41.46
38880;BME280;25887;30.194;-97.880;2023-03-04T08:39:05;98102.09;;;13.53;41.60
38880;BME280;25887;30.194;-97.880;2023-03-04T08:41:31;98096.13;;;13.50;41.56
38880;BME280;25887;30.194;-97.880;2023-03-04T08:43:57;98098.78;;;13.45;41.72
38880;BME280;25887;30.194;-97.880;2023-03-04T08:46:23;98097.13;;;13.41;41.54
38880;BME280;25887;30.194;-97.880;2023-03-04T08:48:49;98100.63;;;13.38;41.58
38880;BME280;25887;30.194;-97.880;2023-03-04T08:51:15;98102.34;;;13.36;41.47
38880;BME280;25887;30.194;-97.880;2023-03-04T08:53:41;98099.81;;;13.35;41.87
38880;BME280;25887;30.194;-97.880;2023-03-04T08:56:08;98098.13;;;13.32;41.97
38880;BME280;25887;30.194;-97.880;2023-03-04T08:58:34;98100.75;;;13.31;42.00
38880;BME280;25887;30.194;-97.880;2023-03-04T09:01:01;98098.16;;;13.29;42.10
38880;BME280;25887;30.194;-97.880;2023-03-04T09:03:45;98107.69;;;13.26;41.77
38880;BME280;25887;30.194;-97.880;2023-03-04T09:06:12;98111.16;;;13.25;41.73
38880;BME280;25887;30.194;-97.880;2023-03-04T09:08:38;98120.63;;;13.24;42.22
38880;BME280;25887;30.194;-97.880;2023-03-04T09:11:04;98112.88;;;13.24;42.20
38880;BME280;25887;30.194;-97.880;2023-03-04T09:13:30;98111.13;;;13.26;42.14
38880;BME280;25887;30.194;-97.880;2023-03-04T09:16:41;98115.44;;;13.26;42.40
38880;BME280;25887;30.194;-97.880;2023-03-04T09:22:10;98101.69;;;13.25;42.45
38880;BME280;25887;30.194;-97.880;2023-03-04T09:24:35;98096.56;;;13.22;42.46
38880;BME280;25887;30.194;-97.880;2023-03-04T09:30:05;98100.00;;;13.21;42.51
38880;BME280;25887;30.194;-97.880;2023-03-04T09:32:31;98100.00;;;13.21;42.05
38880;BME280;25887;30.194;-97.880;2023-03-04T09:34:56;98097.47;;;13.20;42.41
38880;BME280;25887;30.194;-97.880;2023-03-04T09:37:22;98098.31;;;13.20;42.07
38880;BME280;25887;30.194;-97.880;2023-03-04T09:39:48;98100.03;;;13.18;42.28
38880;BME280;25887;30.194;-97.880;2023-03-04T09:42:20;98095.72;;;13.19;42.52
38880;BME280;25887;30.194;-97.880;2023-03-04T09:44:47;98098.31;;;13.20;42.15
38880;BME280;25887;30.194;-97.880;2023-03-04T09:47:14;98091.41;;;13.19;42.36
38880;BME280;25887;30.194;-97.880;2023-03-04T09:49:41;98094.00;;;13.19;42.61
38880;BME280;25887;30.194;-97.880;2023-03-04T09:52:23;98097.47;;;13.18;42.21
38880;BME280;25887;30.194;-97.880;2023-03-04T09:59:47;98110.34;;;13.20;42.69
38880;BME280;25887;30.194;-97.880;2023-03-04T10:02:19;98115.50;;;13.21;42.81
38880;BME280;25887;30.194;-97.880;2023-03-04T10:04:53;98115.47;;;13.23;42.44
38880;BME280;25887;30.194;-97.880;2023-03-04T10:07:26;98111.19;;;13.22;42.76
38880;BME280;25887;30.194;-97.880;2023-03-04T10:09:58;98107.72;;;13.23;42.43
38880;BME280;25887;30.194;-97.880;2023-03-04T10:12:26;98110.28;;;13.26;42.99
38880;BME280;25887;30.194;-97.880;2023-03-04T10:15:02;98115.41;;;13.27;42.97
38880;BME280;25887;30.194;-97.880;2023-03-04T10:17:39;98117.94;;;13.30;42.81
38880;BME280;25887;30.194;-97.880;2023-03-04T10:22:35;98129.00;;;13.37;43.06
38880;BME280;25887;30.194;-97.880;2023-03-04T10:32:57;98138.94;;;13.61;43.00
38880;BME280;25887;30.194;-97.880;2023-03-04T10:35:25;98131.97;;;13.68;43.17
38880;BME280;25887;30.194;-97.880;2023-03-04T10:37:52;98137.94;;;13.72;42.66
38880;BME280;25887;30.194;-97.880;2023-03-04T10:40:22;98142.13;;;13.77;43.08
38880;BME280;25887;30.194;-97.880;2023-03-04T10:42:49;98148.97;;;13.81;42.70
38880;BME280;25887;30.194;-97.880;2023-03-04T10:48:03;98148.84;;;13.89;43.12
38880;BME280;25887;30.194;-97.880;2023-03-04T10:50:29;98145.34;;;13.91;43.02
38880;BME280;25887;30.194;-97.880;2023-03-04T10:52:56;98153.03;;;13.96;42.92
38880;BME280;25887;30.194;-97.880;2023-03-04T10:55:42;98157.28;;;13.99;43.13
38880;BME280;25887;30.194;-97.880;2023-03-04T10:58:11;98152.91;;;14.02;42.68
38880;BME280;25887;30.194;-97.880;2023-03-04T11:00:38;98159.78;;;14.03;43.07
38880;BME280;25887;30.194;-97.880;2023-03-04T11:06:06;98163.16;;;14.07;42.87
38880;BME280;25887;30.194;-97.880;2023-03-04T11:08:32;98170.03;;;14.08;42.83
38880;BME280;25887;30.194;-97.880;2023-03-04T11:10:58;98167.44;;;14.09;42.97
38880;BME280;25887;30.194;-97.880;2023-03-04T11:13:24;98169.09;;;14.12;42.77
38880;BME280;25887;30.194;-97.880;2023-03-04T11:18:22;98175.06;;;14.15;43.09
38880;BME280;25887;30.194;-97.880;2023-03-04T11:20:50;98171.66;;;14.13;43.06
38880;BME280;25887;30.194;-97.880;2023-03-04T11:23:21;98179.44;;;14.12;43.19
38880;BME280;25887;30.194;-97.880;2023-03-04T11:25:54;98191.53;;;14.10;43.10
38880;BME280;25887;30.194;-97.880;2023-03-04T11:28:43;98191.53;;;14.10;43.20
38880;BME280;25887;30.194;-97.880;2023-03-04T11:31:22;98196.72;;;14.07;43.14
38880;BME280;25887;30.194;-97.880;2023-03-04T11:36:39;98213.16;;;14.04;42.98
38880;BME280;25887;30.194;-97.880;2023-03-04T11:42:00;98212.38;;;13.98;43.14
38880;BME280;25887;30.194;-97.880;2023-03-04T11:44:34;98211.53;;;13.97;43.01
38880;BME280;25887;30.194;-97.880;2023-03-04T11:47:14;98216.78;;;13.94;43.36
38880;BME280;25887;30.194;-97.880;2023-03-04T12:03:23;98229.94;;;13.76;43.18
38880;BME280;25887;30.194;-97.880;2023-03-04T12:05:53;98233.50;;;13.70;43.17
38880;BME280;25887;30.194;-97.880;2023-03-04T12:08:43;98238.75;;;13.64;43.47
38880;BME280;25887;30.194;-97.880;2023-03-04T12:14:10;98238.09;;;13.48;43.45
38880;BME280;25887;30.194;-97.880;2023-03-04T12:19:19;98239.97;;;13.37;43.30
38880;BME280;25887;30.194;-97.880;2023-03-04T12:21:54;98234.88;;;13.32;43.58
38880;BME280;25887;30.194;-97.880;2023-03-04T12:27:21;98238.41;;;13.25;43.75
38880;BME280;25887;30.194;-97.880;2023-03-04T12:37:20;98239.44;;;13.09;43.40
38880;BME280;25887;30.194;-97.880;2023-03-04T12:49:51;98246.53;;;12.90;43.68
38880;BME280;25887;30.194;-97.880;2023-03-04T12:55:13;98250.94;;;12.80;43.94
38880;BME280;25887;30.194;-97.880;2023-03-04T12:57:40;98257.00;;;12.75;43.64
38880;BME280;25887;30.194;-97.880;2023-03-04T13:07:53;98256.31;;;12.59;43.74
38880;BME280;25887;30.194;-97.880;2023-03-04T13:10:35;98262.41;;;12.53;44.08
38880;BME280;25887;30.194;-97.880;2023-03-04T13:13:01;98265.00;;;12.50;44.09
38880;BME280;25887;30.194;-97.880;2023-03-04T13:15:34;98277.06;;;12.48;43.90
38880;BME280;25887;30.194;-97.880;2023-03-04T13:18:01;98283.09;;;12.44;44.11
38880;BME280;25887;30.194;-97.880;2023-03-04T13:20:40;98290.84;;;12.41;43.87
38880;BME280;25887;30.194;-97.880;2023-03-04T13:25:33;98306.34;;;12.37;43.95
38880;BME280;25887;30.194;-97.880;2023-03-04T13:35:56;98319.28;;;12.31;44.24
38880;BME280;25887;30.194;-97.880;2023-03-04T13:53:52;98329.25;;;12.70;44.37
38880;BME280;25887;30.194;-97.880;2023-03-04T13:56:35;98330.78;;;12.90;44.69
38880;BME280;25887;30.194;-97.880;2023-03-04T13:59:09;98327.03;;;13.18;44.55
38880;BME280;25887;30.194;-97.880;2023-03-04T14:01:57;98330.13;;;13.49;44.39
38880;BME280;25887;30.194;-97.880;2023-03-04T14:04:34;98346.97;;;13.79;44.70
38880;BME280;25887;30.194;-97.880;2023-03-04T14:07:03;98347.41;;;14.07;44.60
38880;BME280;25887;30.194;-97.880;2023-03-04T14:09:42;98356.44;;;14.37;44.37
38880;BME280;25887;30.194;-97.880;2023-03-04T14:12:38;98351.78;;;14.61;44.22
38880;BME280;25887;30.194;-97.880;2023-03-04T14:15:15;98352.00;;;14.98;44.13
38880;BME280;25887;30.194;-97.880;2023-03-04T14:17:45;98352.56;;;15.14;44.47
38880;BME280;25887;30.194;-97.880;2023-03-04T14:20:34;98365.06;;;15.37;44.36
38880;BME280;25887;30.194;-97.880;2023-03-04T14:23:02;98370.66;;;15.60;44.03
38880;BME280;25887;30.194;-97.880;2023-03-04T14:25:32;98365.28;;;15.71;44.26
38880;BME280;25887;30.194;-97.880;2023-03-04T14:31:01;98384.09;;;15.80;44.61
38880;BME280;25887;30.194;-97.880;2023-03-04T14:33:27;98390.81;;;15.89;44.47
38880;BME280;25887;30.194;-97.880;2023-03-04T14:35:55;98391.41;;;16.00;44.71
38880;BME280;25887;30.194;-97.880;2023-03-04T14:38:52;98397.13;;;16.16;44.53
38880;BME280;25887;30.194;-97.880;2023-03-04T14:41:37;98395.50;;;16.49;44.34
38880;BME280;25887;30.194;-97.880;2023-03-04T14:44:46;98393.31;;;16.69;44.46
38880;BME280;25887;30.194;-97.880;2023-03-04T14:46:55;98394.72;;;16.83;44.41
38880;BME280;25887;30.194;-97.880;2023-03-04T14:49:41;98393.31;;;17.04;44.48
38880;BME280;25887;30.194;-97.880;2023-03-04T14:52:25;98397.88;;;17.28;44.44
38880;BME280;25887;30.194;-97.880;2023-03-04T14:55:33;98399.06;;;17.47;44.38
38880;BME280;25887;30.194;-97.880;2023-03-04T15:03:32;98403.75;;;17.97;44.00
38880;BME280;25887;30.194;-97.880;2023-03-04T15:06:32;98408.72;;;18.06;44.25
38880;BME280;25887;30.194;-97.880;2023-03-04T15:09:16;98413.59;;;18.17;44.23